createdAt,value
2023-02-23T00:02:08.320Z,8.97
2023-02-23T00:04:36.136Z,9.20
2023-02-23T00:07:22.444Z,8.43
2023-02-23T00:09:50.923Z,10.03
2023-02-23T00:12:18.377Z,8.80
2023-02-23T00:14:46.212Z,9.67
2023-02-23T00:17:15.259Z,9.80
2023-02-23T00:19:45.662Z,10.53
2023-02-23T00:22:13.153Z,9.53
2023-02-23T00:24:42.619Z,9.13
2023-02-23T00:27:10.567Z,10.03
2023-02-23T00:29:40.512Z,8.20
2023-02-23T00:32:08.257Z,8.37
2023-02-23T00:34:36.760Z,8.43
2023-02-23T00:37:04.633Z,8.57
2023-02-23T00:39:32.171Z,10.63
2023-02-23T00:42:03.009Z,9.17
2023-02-23T00:44:31.062Z,8.67
2023-02-23T00:46:58.459Z,8.17
2023-02-23T00:49:26.009Z,10.43
2023-02-23T00:51:53.779Z,10.10
2023-02-23T00:54:22.217Z,10.93
2023-02-23T00:56:50.237Z,12.47
2023-02-23T00:59:19.152Z,9.63
2023-02-23T01:01:46.680Z,10.93
2023-02-23T01:04:14.140Z,11.47
2023-02-23T01:06:42.615Z,8.63
2023-02-23T01:09:11.554Z,10.53
2023-02-23T01:11:41.454Z,10.57
2023-02-23T01:14:09.072Z,9.10
2023-02-23T01:16:39.103Z,7.47
2023-02-23T01:19:07.519Z,8.03
2023-02-23T01:21:37.627Z,8.93
2023-02-23T01:24:05.556Z,10.23
2023-02-23T01:26:36.934Z,10.00
2023-02-23T01:29:08.695Z,10.73
2023-02-23T01:31:36.852Z,8.77
2023-02-23T01:34:04.530Z,8.17
2023-02-23T01:36:34.757Z,8.73
2023-02-23T01:39:02.595Z,7.87
2023-02-23T01:41:34.598Z,9.23
2023-02-23T01:44:05.228Z,9.47
2023-02-23T01:46:34.208Z,10.83
2023-02-23T01:49:01.977Z,7.47
2023-02-23T01:51:32.475Z,7.80
2023-02-23T01:54:02.939Z,8.97
2023-02-23T01:56:32.607Z,8.40
2023-02-23T01:59:03.999Z,9.50
2023-02-23T02:01:32.033Z,9.87
2023-02-23T02:04:02.273Z,9.40
2023-02-23T02:06:32.049Z,9.27
2023-02-23T02:09:06.568Z,8.77
2023-02-23T02:11:38.712Z,7.57
2023-02-23T02:14:17.048Z,9.63
2023-02-23T02:16:50.683Z,10.37
2023-02-23T02:19:18.780Z,9.00
2023-02-23T02:21:54.187Z,8.17
2023-02-23T02:24:35.497Z,8.87
2023-02-23T02:27:12.787Z,7.87
2023-02-23T02:29:52.749Z,7.47
2023-02-23T02:32:39.565Z,7.73
2023-02-23T02:35:18.900Z,7.87
2023-02-23T02:38:06.689Z,9.33
2023-02-23T02:40:53.348Z,9.23
2023-02-23T02:43:24.271Z,9.57
2023-02-23T02:46:00.088Z,7.93
2023-02-23T02:48:31.285Z,9.73
2023-02-23T02:51:04.793Z,9.03
2023-02-23T02:53:57.429Z,9.57
2023-02-23T02:56:28.389Z,9.97
2023-02-23T02:58:56.588Z,7.60
2023-02-23T03:01:42.819Z,8.40
2023-02-23T03:04:39.872Z,8.40
2023-02-23T03:07:46.347Z,7.20
2023-02-23T03:10:42.051Z,8.77
2023-02-23T03:13:28.048Z,8.40
2023-02-23T03:16:29.712Z,7.63
2023-02-23T03:19:38.243Z,7.10
2023-02-23T03:22:35.438Z,8.43
2023-02-23T03:25:23.834Z,6.73
2023-02-23T03:28:19.940Z,8.03
2023-02-23T03:31:08.925Z,8.87
2023-02-23T03:34:09.422Z,7.73
2023-02-23T03:36:57.126Z,6.67
2023-02-23T03:39:49.197Z,7.07
2023-02-23T03:42:37.133Z,7.73
2023-02-23T03:45:25.311Z,7.30
2023-02-23T03:48:12.659Z,8.10
2023-02-23T03:51:01.393Z,7.73
2023-02-23T03:53:53.455Z,7.43
2023-02-23T03:56:43.146Z,7.33
2023-02-23T03:59:30.242Z,7.13
2023-02-23T04:02:17.797Z,7.37
2023-02-23T04:05:06.035Z,6.17
2023-02-23T04:07:53.215Z,6.93
2023-02-23T04:10:40.027Z,8.27
2023-02-23T04:13:17.353Z,6.73
2023-02-23T04:15:49.855Z,7.40
2023-02-23T04:18:19.387Z,6.83
2023-02-23T04:20:49.014Z,8.43
2023-02-23T04:23:16.688Z,7.33
2023-02-23T04:25:44.101Z,7.00
2023-02-23T04:28:11.567Z,7.10
2023-02-23T04:30:39.797Z,7.30
2023-02-23T04:33:07.221Z,6.90
2023-02-23T04:35:35.785Z,6.87
2023-02-23T04:38:05.905Z,7.17
2023-02-23T04:40:33.647Z,6.70
2023-02-23T04:43:01.147Z,7.63
2023-02-23T04:45:29.344Z,7.47
2023-02-23T04:47:59.036Z,6.77
2023-02-23T04:50:26.401Z,8.07
2023-02-23T04:52:53.999Z,6.23
2023-02-23T04:55:23.085Z,7.20
2023-02-23T04:57:50.713Z,7.10
2023-02-23T05:00:19.009Z,7.13
2023-02-23T05:02:46.424Z,7.67
2023-02-23T05:05:13.964Z,8.77
2023-02-23T05:07:41.497Z,8.50
2023-02-23T05:10:09.372Z,7.20
2023-02-23T05:12:36.852Z,7.13
2023-02-23T05:15:04.587Z,6.80
2023-02-23T05:17:32.071Z,6.73
2023-02-23T05:20:01.601Z,6.33
2023-02-23T05:22:29.553Z,6.07
2023-02-23T05:24:57.587Z,7.20
2023-02-23T05:27:25.187Z,7.63
2023-02-23T05:29:55.022Z,7.70
2023-02-23T05:32:24.661Z,6.17
2023-02-23T05:34:52.055Z,6.67
2023-02-23T05:37:19.990Z,6.83
2023-02-23T05:39:47.816Z,6.90
2023-02-23T05:42:15.252Z,7.70
2023-02-23T05:44:45.800Z,7.43
2023-02-23T05:47:13.245Z,7.87
2023-02-23T05:49:40.638Z,8.17
2023-02-23T05:52:08.443Z,8.07
2023-02-23T05:54:37.810Z,7.53
2023-02-23T05:57:05.361Z,7.30
2023-02-23T05:59:32.757Z,8.83
2023-02-23T06:02:00.275Z,6.00
2023-02-23T06:04:27.700Z,8.20
2023-02-23T06:06:55.245Z,7.97
2023-02-23T06:09:22.662Z,10.20
2023-02-23T06:11:50.221Z,9.63
2023-02-23T06:14:25.261Z,10.30
2023-02-23T06:16:52.799Z,9.50
2023-02-23T06:19:20.279Z,6.47
2023-02-23T06:21:47.617Z,7.40
2023-02-23T06:24:17.811Z,8.50
2023-02-23T06:26:45.392Z,6.43
2023-02-23T06:29:13.566Z,7.40
2023-02-23T06:31:41.208Z,6.37
2023-02-23T06:34:08.816Z,7.67
2023-02-23T06:36:37.147Z,7.73
2023-02-23T06:39:04.634Z,6.70
2023-02-23T06:41:33.320Z,6.43
2023-02-23T06:44:00.659Z,9.27
2023-02-23T06:46:28.300Z,7.60
2023-02-23T06:48:56.298Z,5.47
2023-02-23T06:51:33.364Z,7.00
2023-02-23T06:54:03.386Z,6.63
2023-02-23T06:56:37.220Z,6.07
2023-02-23T06:59:04.848Z,6.63
2023-02-23T07:01:32.340Z,6.60
2023-02-23T07:04:02.650Z,7.90
2023-02-23T07:06:38.498Z,7.03
2023-02-23T07:09:08.553Z,7.43
2023-02-23T07:11:38.926Z,5.60
2023-02-23T07:14:07.723Z,5.50
2023-02-23T07:16:39.405Z,7.47
2023-02-23T07:19:09.733Z,5.53
2023-02-23T07:21:37.361Z,6.07
2023-02-23T07:24:05.993Z,6.60
2023-02-23T07:26:33.740Z,7.20
2023-02-23T07:29:01.563Z,5.80
2023-02-23T07:31:30.085Z,5.87
2023-02-23T07:33:57.916Z,4.77
2023-02-23T07:36:25.784Z,5.87
2023-02-23T07:38:54.162Z,6.43
2023-02-23T07:41:22.548Z,5.90
2023-02-23T07:43:50.302Z,6.00
2023-02-23T07:46:18.944Z,5.00
2023-02-23T07:48:46.340Z,4.73
2023-02-23T07:51:15.416Z,5.30
2023-02-23T07:53:43.386Z,4.43
2023-02-23T07:56:11.795Z,4.00
2023-02-23T07:58:40.075Z,5.23
2023-02-23T08:01:10.852Z,5.73
2023-02-23T08:03:39.502Z,3.93
2023-02-23T08:06:07.237Z,3.90
2023-02-23T08:08:35.534Z,4.47
2023-02-23T08:11:04.205Z,4.93
2023-02-23T08:13:32.078Z,4.30
2023-02-23T08:16:00.031Z,5.22
2023-02-23T08:18:29.852Z,3.77
2023-02-23T08:21:01.720Z,4.10
2023-02-23T08:23:32.900Z,4.77
2023-02-23T08:26:00.791Z,3.93
2023-02-23T08:28:29.211Z,3.90
2023-02-23T08:30:56.997Z,3.83
2023-02-23T08:33:24.621Z,4.23
2023-02-23T08:35:53.717Z,3.87
2023-02-23T08:38:21.704Z,3.70
2023-02-23T08:40:51.598Z,3.60
2023-02-23T08:43:19.042Z,4.33
2023-02-23T08:45:52.012Z,4.53
2023-02-23T08:48:23.980Z,3.73
2023-02-23T08:50:51.722Z,4.63
2023-02-23T08:53:19.437Z,4.17
2023-02-23T08:55:46.931Z,3.33
2023-02-23T08:58:14.398Z,4.50
2023-02-23T09:00:41.808Z,3.93
2023-02-23T09:03:11.588Z,5.13
2023-02-23T09:05:39.723Z,4.20
2023-02-23T09:08:07.275Z,3.30
2023-02-23T09:10:34.604Z,3.90
2023-02-23T09:13:02.833Z,4.20
2023-02-23T09:15:30.428Z,3.40
2023-02-23T09:18:02.419Z,3.83
2023-02-23T09:20:29.955Z,3.87
2023-02-23T09:22:57.532Z,4.00
2023-02-23T09:25:25.689Z,4.27
2023-02-23T09:27:54.194Z,4.60
2023-02-23T09:30:22.254Z,4.03
2023-02-23T09:32:59.470Z,4.50
2023-02-23T09:35:27.031Z,3.60
2023-02-23T09:37:55.501Z,3.97
2023-02-23T09:40:24.840Z,4.07
2023-02-23T09:43:00.941Z,3.33
2023-02-23T09:45:40.098Z,4.10
2023-02-23T09:48:21.046Z,3.27
2023-02-23T09:50:53.135Z,3.67
2023-02-23T09:53:20.593Z,2.80
2023-02-23T09:55:48.475Z,3.03
2023-02-23T09:58:21.653Z,4.83
2023-02-23T10:00:52.592Z,3.67
2023-02-23T10:03:35.548Z,4.40
2023-02-23T10:06:04.995Z,5.50
2023-02-23T10:08:50.886Z,5.10
2023-02-23T10:11:19.203Z,3.77
2023-02-23T10:13:46.851Z,4.17
2023-02-23T10:16:14.956Z,4.70
2023-02-23T10:18:50.376Z,7.80
2023-02-23T10:21:22.645Z,5.87
2023-02-23T10:24:09.143Z,5.23
2023-02-23T10:26:44.247Z,6.00
2023-02-23T10:29:18.982Z,6.40
2023-02-23T10:31:49.421Z,6.53
2023-02-23T10:34:17.994Z,7.70
2023-02-23T10:36:48.605Z,8.43
2023-02-23T10:39:18.896Z,5.80
2023-02-23T10:41:46.898Z,5.30
2023-02-23T10:44:22.914Z,5.30
2023-02-23T10:47:02.338Z,6.47
2023-02-23T10:49:41.187Z,7.40
2023-02-23T10:52:13.636Z,6.80
2023-02-23T10:54:47.762Z,7.23
2023-02-23T10:57:28.049Z,5.60
2023-02-23T11:00:14.673Z,5.93
2023-02-23T11:02:45.902Z,6.80
2023-02-23T11:05:32.367Z,5.70
2023-02-23T11:08:10.106Z,4.90
2023-02-23T11:10:37.724Z,5.73
2023-02-23T11:13:05.172Z,5.33
2023-02-23T11:15:49.479Z,6.10
2023-02-23T11:18:22.993Z,5.60
2023-02-23T11:20:50.662Z,6.50
2023-02-23T11:23:23.998Z,6.80
2023-02-23T11:25:55.676Z,5.37
2023-02-23T11:28:30.205Z,5.07
2023-02-23T11:31:18.796Z,6.27
2023-02-23T11:33:47.478Z,5.67
2023-02-23T11:36:17.410Z,5.80
2023-02-23T11:38:46.556Z,6.50
2023-02-23T11:41:21.981Z,5.87
2023-02-23T11:43:54.840Z,5.87
2023-02-23T11:46:23.513Z,7.40
2023-02-23T11:48:59.858Z,5.83
2023-02-23T11:51:29.841Z,7.10
2023-02-23T11:54:00.818Z,6.77
2023-02-23T11:56:29.894Z,6.90
2023-02-23T11:59:00.201Z,5.87
2023-02-23T12:01:44.086Z,5.13
2023-02-23T12:04:30.830Z,6.63
2023-02-23T12:07:18.345Z,6.53
2023-02-23T12:09:46.853Z,6.70
2023-02-23T12:12:16.914Z,6.00
2023-02-23T12:14:54.223Z,6.07
2023-02-23T12:17:26.324Z,4.67
2023-02-23T12:20:21.535Z,6.37
2023-02-23T12:22:54.008Z,6.03
2023-02-23T12:25:32.066Z,6.30
2023-02-23T12:28:19.065Z,5.47
2023-02-23T12:30:52.329Z,4.87
2023-02-23T12:33:45.067Z,5.80
2023-02-23T12:36:33.714Z,5.77
2023-02-23T12:39:20.900Z,6.03
2023-02-23T12:42:13.151Z,5.50
2023-02-23T12:44:45.976Z,4.90
2023-02-23T12:47:24.386Z,5.97
2023-02-23T12:50:07.488Z,5.03
2023-02-23T12:52:39.312Z,5.33
2023-02-23T12:55:11.094Z,5.90
2023-02-23T12:57:44.978Z,5.43
2023-02-23T13:00:24.856Z,6.40
2023-02-23T13:03:16.063Z,4.57
2023-02-23T13:06:05.530Z,5.43
2023-02-23T13:08:51.864Z,4.60
2023-02-23T13:11:29.041Z,4.90
2023-02-23T13:14:14.272Z,5.00
2023-02-23T13:16:48.065Z,5.10
2023-02-23T13:19:31.697Z,5.60
2023-02-23T13:22:16.566Z,5.13
2023-02-23T13:24:49.352Z,5.23
2023-02-23T13:27:19.517Z,5.20
2023-02-23T13:29:49.469Z,5.50
2023-02-23T13:32:17.792Z,4.90
2023-02-23T13:34:52.380Z,4.80
2023-02-23T13:37:21.914Z,4.60
2023-02-23T13:39:52.391Z,4.87
2023-02-23T13:42:43.253Z,4.73
2023-02-23T13:45:11.019Z,4.27
2023-02-23T13:47:38.358Z,5.07
2023-02-23T13:50:26.084Z,4.03
2023-02-23T13:52:58.375Z,4.10
2023-02-23T13:55:43.262Z,4.00
2023-02-23T13:58:17.174Z,4.03
2023-02-23T14:00:45.220Z,4.20
2023-02-23T14:03:24.437Z,3.47
2023-02-23T14:05:56.853Z,3.90
2023-02-23T14:08:29.142Z,2.50
2023-02-23T14:10:57.506Z,4.17
2023-02-23T14:13:30.401Z,2.30
2023-02-23T14:16:18.170Z,2.70
2023-02-23T14:18:57.488Z,2.40
2023-02-23T14:21:31.231Z,2.90
2023-02-23T14:24:17.731Z,2.53
2023-02-23T14:27:04.640Z,1.90
2023-02-23T14:29:32.756Z,2.43
2023-02-23T14:32:03.596Z,2.47
2023-02-23T14:34:43.387Z,2.33
2023-02-23T14:37:16.998Z,2.43
2023-02-23T14:39:44.634Z,1.97
2023-02-23T14:42:21.213Z,1.70
2023-02-23T14:44:51.554Z,2.23
2023-02-23T14:47:21.826Z,1.43
2023-02-23T14:49:52.152Z,1.73
2023-02-23T14:52:29.633Z,1.43
2023-02-23T14:55:14.937Z,1.77
2023-02-23T14:57:43.084Z,2.20
2023-02-23T15:00:25.744Z,1.93
2023-02-23T15:02:54.653Z,1.83
2023-02-23T15:05:24.318Z,1.60
2023-02-23T15:07:52.185Z,2.00
2023-02-23T15:10:22.726Z,1.80
2023-02-23T15:12:51.153Z,1.90
2023-02-23T15:15:20.266Z,2.00
2023-02-23T15:17:48.874Z,2.17
2023-02-23T15:20:17.550Z,1.83
2023-02-23T15:22:51.811Z,1.60
2023-02-23T15:25:20.573Z,2.00
2023-02-23T15:27:48.503Z,2.03
2023-02-23T15:30:35.847Z,1.50
2023-02-23T15:33:11.842Z,1.43
2023-02-23T15:35:58.328Z,2.58
2023-02-23T15:38:43.047Z,1.70
2023-02-23T15:41:25.165Z,2.10
2023-02-23T15:43:52.797Z,2.03
2023-02-23T15:46:25.730Z,1.57
2023-02-23T15:49:00.729Z,1.80
2023-02-23T15:51:48.771Z,1.50
2023-02-23T15:54:19.344Z,1.67
2023-02-23T15:56:49.960Z,2.27
2023-02-23T15:59:21.938Z,2.13
2023-02-23T16:01:50.511Z,1.93
2023-02-23T16:04:19.365Z,1.67
2023-02-23T16:06:54.145Z,2.50
2023-02-23T16:09:22.163Z,2.03
2023-02-23T16:12:00.103Z,2.23
2023-02-23T16:14:29.707Z,2.00
2023-02-23T16:17:10.853Z,2.00
2023-02-23T16:19:41.145Z,1.60
2023-02-23T16:22:12.143Z,1.53
2023-02-23T16:24:53.845Z,1.90
2023-02-23T16:27:22.299Z,2.17
2023-02-23T16:29:56.226Z,2.43
2023-02-23T16:32:27.636Z,2.03
2023-02-23T16:35:04.219Z,1.37
2023-02-23T16:37:31.812Z,1.80
2023-02-23T16:40:01.359Z,2.17
2023-02-23T16:42:32.993Z,2.80
2023-02-23T16:45:02.589Z,2.23
2023-02-23T16:47:41.167Z,2.07
2023-02-23T16:50:22.679Z,1.87
2023-02-23T16:52:52.063Z,1.43
2023-02-23T16:55:26.298Z,1.57
2023-02-23T16:58:02.521Z,1.30
2023-02-23T17:00:31.609Z,1.50
2023-02-23T17:03:00.718Z,1.83
2023-02-23T17:05:31.542Z,1.60
2023-02-23T17:08:00.685Z,1.30
2023-02-23T17:10:30.668Z,1.70
2023-02-23T17:13:05.225Z,2.23
2023-02-23T17:15:39.216Z,1.40
2023-02-23T17:18:09.785Z,1.60
2023-02-23T17:20:39.301Z,1.20
2023-02-23T17:23:08.533Z,1.33
2023-02-23T17:25:38.514Z,1.77
2023-02-23T17:28:06.222Z,1.70
2023-02-23T17:30:34.291Z,1.20
2023-02-23T17:33:02.797Z,1.40
2023-02-23T17:35:33.602Z,1.73
2023-02-23T17:38:01.771Z,1.20
2023-02-23T17:40:29.433Z,1.20
2023-02-23T17:42:58.828Z,1.37
2023-02-23T17:45:26.865Z,1.53
2023-02-23T17:47:54.313Z,1.27
2023-02-23T17:50:22.172Z,1.50
2023-02-23T17:52:50.723Z,1.30
2023-02-23T17:55:19.348Z,1.73
2023-02-23T17:57:47.625Z,1.20
2023-02-23T18:00:16.024Z,1.20
2023-02-23T18:02:44.602Z,1.20
2023-02-23T18:05:14.920Z,1.50
2023-02-23T18:07:42.653Z,1.20
2023-02-23T18:10:11.596Z,1.37
2023-02-23T18:12:42.447Z,1.50
2023-02-23T18:15:11.139Z,1.30
2023-02-23T18:17:38.595Z,1.17
2023-02-23T18:20:06.910Z,1.23
2023-02-23T18:22:34.389Z,1.40
2023-02-23T18:25:01.848Z,1.23
2023-02-23T18:27:29.186Z,1.37
2023-02-23T18:29:56.586Z,1.30
2023-02-23T18:32:26.433Z,1.40
2023-02-23T18:34:54.129Z,2.07
2023-02-23T18:37:25.212Z,1.03
2023-02-23T18:39:54.216Z,0.90
2023-02-23T18:42:24.003Z,1.60
2023-02-23T18:44:55.351Z,1.30
2023-02-23T18:47:23.063Z,1.23
2023-02-23T18:49:52.838Z,1.80
2023-02-23T18:52:20.260Z,1.20
2023-02-23T18:54:47.743Z,1.23
2023-02-23T18:57:15.667Z,1.27
2023-02-23T18:59:43.083Z,1.20
2023-02-23T19:02:11.156Z,1.23
2023-02-23T19:04:39.351Z,1.50
2023-02-23T19:07:06.807Z,1.60
2023-02-23T19:09:34.285Z,1.60
2023-02-23T19:12:01.678Z,1.50
2023-02-23T19:14:47.837Z,1.67
2023-02-23T19:17:16.393Z,1.60
2023-02-23T19:19:44.725Z,1.20
2023-02-23T19:22:12.239Z,1.50
2023-02-23T19:24:40.766Z,1.03
2023-02-23T19:27:08.395Z,1.80
2023-02-23T19:29:35.842Z,1.77
2023-02-23T19:32:06.057Z,2.10
2023-02-23T19:34:33.666Z,1.97
2023-02-23T19:37:01.014Z,1.40
2023-02-23T19:39:28.583Z,1.30
2023-02-23T19:41:55.997Z,1.30
2023-02-23T19:44:23.509Z,1.60
2023-02-23T19:46:51.309Z,1.43
2023-02-23T19:49:18.761Z,1.70
2023-02-23T19:51:47.814Z,1.60
2023-02-23T19:54:15.239Z,1.70
2023-02-23T19:56:43.396Z,1.10
2023-02-23T19:59:12.085Z,1.63
2023-02-23T20:01:39.617Z,1.70
2023-02-23T20:04:09.357Z,1.87
2023-02-23T20:06:40.921Z,1.13
2023-02-23T20:09:11.157Z,2.27
2023-02-23T20:11:38.798Z,1.70
2023-02-23T20:14:07.993Z,1.27
2023-02-23T20:16:36.005Z,1.67
2023-02-23T20:19:05.576Z,1.50
2023-02-23T20:21:33.280Z,2.17
2023-02-23T20:24:05.623Z,1.93
2023-02-23T20:26:35.524Z,1.70
2023-02-23T20:29:03.560Z,1.60
2023-02-23T20:31:32.691Z,1.63
2023-02-23T20:34:02.351Z,1.97
2023-02-23T20:36:29.835Z,1.83
2023-02-23T20:38:57.322Z,1.47
2023-02-23T20:41:28.106Z,1.83
2023-02-23T20:43:56.102Z,1.60
2023-02-23T20:46:23.519Z,2.23
2023-02-23T20:48:50.994Z,1.70
2023-02-23T20:51:19.754Z,2.47
2023-02-23T20:53:48.708Z,2.30
2023-02-23T20:56:18.081Z,2.77
2023-02-23T20:58:45.980Z,2.57
2023-02-23T21:01:15.079Z,2.30
2023-02-23T21:03:42.538Z,2.07
2023-02-23T21:06:10.018Z,2.20
2023-02-23T21:08:39.936Z,2.20
2023-02-23T21:11:08.543Z,2.60
2023-02-23T21:13:36.227Z,2.37
2023-02-23T21:16:03.703Z,2.00
2023-02-23T21:18:32.054Z,1.97
2023-02-23T21:21:06.564Z,1.90
2023-02-23T21:23:33.946Z,1.83
2023-02-23T21:26:09.775Z,1.87
2023-02-23T21:28:39.360Z,1.93
2023-02-23T21:31:06.761Z,2.27
2023-02-23T21:33:34.097Z,2.17
2023-02-23T21:36:01.456Z,1.93
2023-02-23T21:38:28.777Z,1.97
2023-02-23T21:40:56.089Z,2.10
2023-02-23T21:43:23.870Z,1.87
2023-02-23T21:45:51.249Z,2.00
2023-02-23T21:48:18.584Z,2.00
2023-02-23T21:50:45.904Z,2.17
2023-02-23T21:53:13.319Z,2.20
2023-02-23T21:55:40.667Z,2.10
2023-02-23T21:58:08.396Z,1.60
2023-02-23T22:00:36.878Z,1.97
2023-02-23T22:03:04.371Z,2.30
2023-02-23T22:05:34.536Z,1.60
2023-02-23T22:08:01.863Z,1.83
2023-02-23T22:10:31.398Z,2.03
2023-02-23T22:13:00.128Z,2.30
2023-02-23T22:15:27.822Z,1.97
2023-02-23T22:17:56.081Z,1.80
2023-02-23T22:20:23.832Z,1.80
2023-02-23T22:22:51.638Z,2.03
2023-02-23T22:25:20.290Z,1.80
2023-02-23T22:27:50.578Z,1.67
2023-02-23T22:30:20.398Z,1.83
2023-02-23T22:32:48.058Z,1.47
2023-02-23T22:35:15.692Z,1.83
2023-02-23T22:37:43.300Z,2.27
2023-02-23T22:40:16.827Z,1.70
2023-02-23T22:42:48.159Z,1.70
2023-02-23T22:45:16.353Z,1.80
2023-02-23T22:47:43.981Z,1.77
2023-02-23T22:50:12.236Z,1.73
2023-02-23T22:52:39.652Z,1.63
2023-02-23T22:55:08.031Z,1.63
2023-02-23T22:57:35.642Z,1.93
2023-02-23T23:00:10.337Z,1.20
2023-02-23T23:02:37.967Z,1.30
2023-02-23T23:05:05.562Z,1.30
2023-02-23T23:07:33.072Z,2.03
2023-02-23T23:10:05.671Z,1.50
2023-02-23T23:12:34.431Z,1.60
2023-02-23T23:15:02.896Z,2.00
2023-02-23T23:17:32.042Z,1.30
2023-02-23T23:20:11.724Z,1.17
2023-02-23T23:22:39.164Z,1.47
2023-02-23T23:25:14.579Z,1.63
2023-02-23T23:27:44.607Z,1.27
2023-02-23T23:30:12.827Z,1.63
2023-02-23T23:32:40.982Z,1.30
2023-02-23T23:35:11.265Z,1.40
2023-02-23T23:37:42.018Z,1.60
2023-02-23T23:40:15.152Z,1.20
2023-02-23T23:42:45.911Z,1.10
2023-02-23T23:45:17.998Z,1.40
2023-02-23T23:47:46.050Z,1.10
2023-02-23T23:50:15.413Z,1.40
2023-02-23T23:52:43.623Z,1.30
2023-02-23T23:55:14.837Z,1.13
2023-02-23T23:57:42.852Z,1.37
